Terminal Aerodrome Forecast
Issued by NWS

Home | Current Version | Previous Version | Text Only | Print | Product List | Glossary On
Versions: 1 2 3 4 5 6 7 8 9 10 11 12 13
000
FTUS45 KABQ 271722
TAFROW
TAF
KROW 271722Z 2718/2818 24010KT P6SM SKC
     FM271900 24014G24KT P6SM SKC
     FM280200 26008KT P6SM SKC
     FM280500 30011KT P6SM SKC
     FM280700 36023G33KT P6SM SCT030
     FM281100 01013G23KT P6SM SCT030=

USA.gov is the U.S. government's official web portal to all federal, state and local government web resources and services.